createdAt,value
2023-02-21T00:00:09.865Z,9.50
2023-02-21T00:02:58.014Z,9.30
2023-02-21T00:05:43.503Z,9.30
2023-02-21T00:08:28.792Z,9.30
2023-02-21T00:11:14.541Z,9.30
2023-02-21T00:14:00.199Z,9.30
2023-02-21T00:16:48.393Z,9.40
2023-02-21T00:19:34.708Z,9.40
2023-02-21T00:22:20.198Z,9.30
2023-02-21T00:25:05.660Z,9.30
2023-02-21T00:27:51.052Z,9.30
2023-02-21T00:30:36.507Z,9.30
2023-02-21T00:33:24.498Z,9.30
2023-02-21T00:36:12.095Z,9.10
2023-02-21T00:38:57.475Z,9.20
2023-02-21T00:41:42.884Z,9.20
2023-02-21T00:44:28.768Z,9.30
2023-02-21T00:47:18.657Z,9.30
2023-02-21T00:50:06.845Z,9.30
2023-02-21T01:34:26.950Z,9.20
2023-02-21T01:45:41.944Z,9.10
2023-02-21T01:51:18.071Z,9.00
2023-02-21T01:54:03.847Z,9.10
2023-02-21T01:56:50.364Z,9.10
2023-02-21T01:59:38.237Z,9.10
2023-02-21T02:02:35.870Z,9.10
2023-02-21T02:05:23.398Z,9.10
2023-02-21T02:08:10.228Z,9.00
2023-02-21T02:10:55.699Z,9.10
2023-02-21T02:13:40.830Z,9.10
2023-02-21T02:16:26.364Z,9.10
2023-02-21T02:19:17.750Z,9.10
2023-02-21T02:22:03.392Z,9.00
2023-02-21T02:24:48.081Z,9.10
2023-02-21T02:27:45.167Z,9.10
2023-02-21T02:30:36.500Z,9.10
2023-02-21T02:33:40.475Z,9.10
2023-02-21T02:36:13.359Z,9.10
2023-02-21T02:39:13.548Z,9.10
2023-02-21T02:41:49.949Z,9.10
2023-02-21T02:44:27.979Z,9.10
2023-02-21T02:46:59.318Z,9.10
2023-02-21T02:49:32.806Z,9.10
2023-02-21T02:52:10.431Z,9.10
2023-02-21T02:54:37.395Z,9.10
2023-02-21T02:59:43.349Z,9.10
2023-02-21T03:02:15.827Z,9.10
2023-02-21T03:04:48.418Z,9.10
2023-02-21T03:07:35.031Z,9.10
2023-02-21T03:15:40.667Z,9.10
2023-02-21T03:18:17.380Z,9.00
2023-02-21T03:20:45.802Z,9.10
2023-02-21T03:23:16.796Z,9.10
2023-02-21T03:25:45.593Z,9.10
2023-02-21T03:28:13.143Z,9.10
2023-02-21T03:30:43.714Z,9.10
2023-02-21T03:33:10.527Z,9.10
2023-02-21T03:35:41.101Z,9.00
2023-02-21T03:43:08.905Z,9.00
2023-02-21T03:45:40.383Z,9.10
2023-02-21T03:50:36.700Z,9.10
2023-02-21T03:53:03.866Z,9.10
2023-02-21T03:55:32.978Z,9.10
2023-02-21T03:58:02.257Z,9.10
2023-02-21T04:00:29.053Z,9.00
2023-02-21T04:02:56.411Z,9.10
2023-02-21T04:22:37.606Z,8.90
2023-02-21T04:25:04.556Z,8.90
2023-02-21T04:27:31.239Z,8.90
2023-02-21T04:29:58.274Z,9.10
2023-02-21T04:32:25.121Z,9.00
2023-02-21T04:34:53.960Z,8.90
2023-02-21T04:37:20.693Z,8.90
2023-02-21T04:39:50.382Z,8.90
2023-02-21T04:42:17.104Z,8.90
2023-02-21T04:44:58.253Z,8.90
2023-02-21T04:47:28.439Z,8.90
2023-02-21T04:49:57.336Z,8.90
2023-02-21T04:52:24.177Z,8.80
2023-02-21T04:54:50.865Z,8.90
2023-02-21T04:57:17.634Z,8.90
2023-02-21T04:59:46.646Z,8.90
2023-02-21T05:02:15.947Z,8.90
2023-02-21T05:04:47.480Z,8.80
2023-02-21T05:07:14.184Z,8.80
2023-02-21T05:09:43.182Z,8.80
2023-02-21T05:12:12.017Z,8.70
2023-02-21T05:14:39.419Z,8.70
2023-02-21T05:17:06.491Z,8.70
2023-02-21T05:19:35.720Z,8.70
2023-02-21T05:22:07.554Z,8.40
2023-02-21T05:24:35.208Z,8.50
2023-02-21T05:29:29.857Z,8.20
2023-02-21T05:31:58.741Z,8.30
2023-02-21T05:34:25.463Z,8.20
2023-02-21T05:36:56.618Z,8.20
2023-02-21T05:39:25.646Z,8.20
2023-02-21T05:41:52.303Z,8.20
2023-02-21T05:44:18.958Z,8.20
2023-02-21T05:46:48.572Z,7.90
2023-02-21T05:49:15.421Z,8.10
2023-02-21T05:51:45.540Z,8.10
2023-02-21T05:54:15.099Z,8.10
2023-02-21T05:56:43.831Z,8.00
2023-02-21T05:59:11.248Z,8.10
2023-02-21T06:01:40.793Z,8.00
2023-02-21T06:04:08.166Z,8.10
2023-02-21T06:06:35.824Z,8.00
2023-02-21T06:09:02.994Z,8.00
2023-02-21T06:11:33.359Z,8.00
2023-02-21T06:14:05.304Z,8.00
2023-02-21T06:16:40.474Z,8.00
2023-02-21T06:19:09.351Z,8.00
2023-02-21T06:21:36.053Z,7.90
2023-02-21T06:24:05.555Z,7.90
2023-02-21T06:26:34.544Z,8.00
2023-02-21T06:29:06.006Z,8.00
2023-02-21T06:31:33.284Z,8.00
2023-02-21T06:34:00.209Z,8.00
2023-02-21T06:36:28.849Z,8.00
2023-02-21T06:38:58.933Z,7.90
2023-02-21T06:41:29.378Z,8.00
2023-02-21T06:43:57.554Z,8.00
2023-02-21T06:46:26.928Z,8.00
2023-02-21T06:48:53.756Z,8.00
2023-02-21T06:51:20.947Z,8.00
2023-02-21T06:53:55.386Z,8.00
2023-02-21T06:56:22.035Z,8.00
2023-02-21T06:58:48.706Z,8.00
2023-02-21T07:01:15.765Z,8.00
2023-02-21T07:03:46.124Z,8.00
2023-02-21T07:06:13.228Z,8.10
2023-02-21T07:08:40.033Z,8.00
2023-02-21T07:11:07.114Z,8.10
2023-02-21T07:13:36.113Z,8.00
2023-02-21T07:16:05.851Z,8.10
2023-02-21T07:18:33.000Z,8.00
2023-02-21T07:21:00.159Z,8.10
2023-02-21T07:23:26.831Z,8.20
2023-02-21T07:25:53.596Z,8.10
2023-02-21T07:28:22.639Z,8.10
2023-02-21T07:30:52.783Z,8.10
2023-02-21T07:33:19.653Z,8.10
2023-02-21T07:35:49.496Z,8.20
2023-02-21T07:38:28.230Z,8.30
2023-02-21T07:40:56.466Z,8.30
2023-02-21T07:43:26.463Z,8.30
2023-02-21T07:45:55.919Z,8.20
2023-02-21T07:48:22.603Z,8.30
2023-02-21T07:50:53.910Z,8.30
2023-02-21T07:53:20.665Z,8.40
2023-02-21T07:55:47.455Z,8.40
2023-02-21T07:58:14.172Z,8.40
2023-02-21T08:00:40.859Z,8.50
2023-02-21T08:03:07.775Z,8.50
2023-02-21T08:05:34.557Z,8.50
2023-02-21T08:08:01.339Z,8.60
2023-02-21T08:10:30.209Z,8.60
2023-02-21T08:12:56.892Z,8.60
2023-02-21T08:15:23.546Z,8.60
2023-02-21T08:17:50.680Z,8.70
2023-02-21T08:20:18.254Z,8.80
2023-02-21T08:22:47.499Z,8.80
2023-02-21T08:25:17.415Z,8.90
2023-02-21T08:27:44.956Z,8.80
2023-02-21T08:30:17.332Z,8.90
2023-02-21T08:32:47.529Z,8.80
2023-02-21T08:35:18.807Z,8.80
2023-02-21T08:37:50.212Z,8.80
2023-02-21T08:40:22.876Z,9.00
2023-02-21T08:42:53.224Z,9.00
2023-02-21T08:45:22.271Z,9.10
2023-02-21T08:47:51.828Z,9.20
2023-02-21T08:50:20.228Z,9.20
2023-02-21T08:52:48.023Z,9.30
2023-02-21T08:55:17.548Z,9.40
2023-02-21T08:57:44.272Z,9.50
2023-02-21T09:00:13.341Z,9.40
2023-02-21T09:02:42.532Z,9.40
2023-02-21T09:05:38.181Z,9.40
2023-02-21T09:08:05.363Z,9.40
2023-02-21T09:10:35.914Z,9.40
2023-02-21T09:13:03.637Z,9.50
2023-02-21T09:15:30.449Z,9.60
2023-02-21T09:18:00.771Z,9.60
2023-02-21T09:20:29.693Z,9.70
2023-02-21T09:22:58.912Z,9.80
2023-02-21T09:25:25.965Z,9.90
2023-02-21T09:27:56.012Z,10.00
2023-02-21T09:30:27.770Z,10.10
2023-02-21T09:32:58.859Z,10.10
2023-02-21T09:35:25.470Z,10.10
2023-02-21T09:37:54.374Z,10.10
2023-02-21T09:40:29.278Z,10.10
2023-02-21T09:42:58.813Z,10.20
2023-02-21T09:45:34.494Z,10.30
2023-02-21T09:48:06.317Z,10.40
2023-02-21T09:50:39.602Z,10.40
2023-02-21T09:53:08.012Z,10.40
2023-02-21T09:55:39.048Z,10.50
2023-02-21T09:58:14.780Z,10.50
2023-02-21T10:00:44.087Z,10.40
2023-02-21T10:03:44.792Z,10.40
2023-02-21T10:06:14.465Z,10.50
2023-02-21T10:09:06.993Z,10.60
2023-02-21T10:11:54.975Z,10.60
2023-02-21T10:14:28.428Z,10.70
2023-02-21T10:17:11.246Z,10.80
2023-02-21T10:19:50.834Z,10.80
2023-02-21T10:22:35.299Z,10.90
2023-02-21T10:25:23.073Z,10.80
2023-02-21T10:27:52.044Z,10.80
2023-02-21T10:30:40.932Z,10.80
2023-02-21T10:33:08.602Z,11.00
2023-02-21T10:35:39.649Z,11.00
2023-02-21T10:38:19.391Z,11.10
2023-02-21T10:40:59.543Z,11.20
2023-02-21T10:43:28.877Z,11.20
2023-02-21T10:46:29.931Z,11.20
2023-02-21T10:49:20.505Z,11.20
2023-02-21T10:51:47.266Z,11.20
2023-02-21T10:54:22.105Z,11.50
2023-02-21T10:56:51.350Z,11.50
2023-02-21T10:59:27.803Z,11.50
2023-02-21T11:04:29.713Z,11.70
2023-02-21T11:07:05.239Z,11.90
2023-02-21T11:09:37.970Z,12.00
2023-02-21T11:12:17.350Z,12.00
2023-02-21T11:14:53.530Z,11.90
2023-02-21T11:17:24.869Z,11.90
2023-02-21T11:19:57.064Z,11.70
2023-02-21T11:22:35.885Z,11.60
2023-02-21T11:25:10.762Z,11.60
2023-02-21T11:27:38.813Z,11.50
2023-02-21T11:30:23.351Z,11.60
2023-02-21T11:32:57.149Z,11.60
2023-02-21T11:35:46.104Z,11.80
2023-02-21T11:38:37.755Z,11.90
2023-02-21T11:41:18.314Z,12.00
2023-02-21T11:43:55.162Z,11.90
2023-02-21T11:46:46.210Z,11.80
2023-02-21T11:49:37.558Z,11.70
2023-02-21T11:52:14.471Z,11.70
2023-02-21T11:54:41.295Z,11.80
2023-02-21T11:57:31.932Z,11.80
2023-02-21T12:00:24.637Z,11.90
2023-02-21T12:03:33.427Z,12.40
2023-02-21T12:06:16.888Z,12.40
2023-02-21T12:09:04.412Z,12.60
2023-02-21T12:11:59.602Z,12.80
2023-02-21T12:14:54.839Z,12.80
2023-02-21T12:17:50.060Z,12.90
2023-02-21T12:20:25.676Z,12.90
2023-02-21T12:23:07.562Z,12.90
2023-02-21T12:26:05.102Z,13.10
2023-02-21T12:28:46.590Z,13.00
2023-02-21T12:31:35.762Z,13.10
2023-02-21T12:34:33.987Z,13.10
2023-02-21T12:37:29.454Z,13.30
2023-02-21T12:40:20.681Z,13.40
2023-02-21T12:45:54.443Z,13.60
2023-02-21T12:48:21.093Z,13.50
2023-02-21T12:50:54.162Z,13.30
2023-02-21T12:53:28.937Z,13.20
2023-02-21T12:55:59.707Z,13.40
2023-02-21T12:58:30.568Z,13.50
2023-02-21T13:01:22.001Z,13.50
2023-02-21T13:04:02.279Z,13.60
2023-02-21T13:07:03.714Z,13.60
2023-02-21T13:09:52.527Z,13.80
2023-02-21T13:12:35.616Z,13.70
2023-02-21T13:15:15.901Z,13.70
2023-02-21T13:18:00.365Z,13.80
2023-02-21T13:28:51.263Z,13.80
2023-02-21T13:31:29.617Z,13.90
2023-02-21T13:34:02.953Z,13.80
2023-02-21T14:12:18.788Z,14.00
2023-02-21T14:17:28.823Z,14.30
2023-02-21T14:20:00.424Z,14.50
2023-02-21T14:22:32.138Z,14.40
2023-02-21T14:25:17.764Z,14.50
2023-02-21T14:27:46.944Z,14.60
2023-02-21T14:30:15.795Z,14.80
2023-02-21T14:32:46.508Z,14.90
2023-02-21T14:35:16.300Z,15.10
2023-02-21T14:37:52.875Z,15.10
2023-02-21T14:40:34.956Z,15.40
2023-02-21T14:45:46.862Z,17.70
2023-02-21T14:48:25.561Z,18.20
2023-02-21T14:59:35.354Z,21.60
2023-02-21T15:25:09.672Z,21.40
2023-02-21T15:30:13.924Z,18.10
2023-02-21T15:35:18.477Z,16.50
2023-02-21T15:40:26.339Z,15.70
2023-02-21T15:47:55.218Z,14.90
2023-02-21T15:50:43.825Z,15.00
2023-02-21T15:55:42.120Z,14.50
2023-02-21T15:58:08.798Z,14.50
2023-02-21T16:03:46.215Z,14.60
2023-02-21T16:14:48.397Z,13.70
2023-02-21T16:17:23.886Z,13.80
2023-02-21T16:19:57.684Z,13.70
2023-02-21T16:22:43.237Z,13.70
2023-02-21T16:45:17.524Z,12.70
2023-02-21T16:47:48.937Z,12.80
2023-02-21T16:50:31.477Z,12.70
2023-02-21T16:52:59.104Z,12.60
2023-02-21T16:55:26.397Z,12.60
2023-02-21T16:57:58.731Z,12.50
2023-02-21T17:00:28.058Z,12.50
2023-02-21T17:02:54.945Z,12.30
2023-02-21T17:05:24.978Z,12.30
2023-02-21T17:07:53.539Z,12.20
2023-02-21T17:10:22.944Z,12.10
2023-02-21T17:12:51.865Z,12.00
2023-02-21T17:15:18.749Z,12.00
2023-02-21T17:17:52.796Z,11.90
2023-02-21T17:20:23.786Z,11.50
2023-02-21T17:22:51.909Z,11.70
2023-02-21T17:25:20.194Z,11.50
2023-02-21T17:27:49.328Z,11.60
2023-02-21T17:30:20.002Z,11.50
2023-02-21T17:32:47.093Z,11.40
2023-02-21T17:35:15.389Z,11.30
2023-02-21T17:37:55.487Z,11.30
2023-02-21T17:40:22.786Z,11.20
2023-02-21T17:42:54.477Z,11.20
2023-02-21T17:45:21.752Z,11.10
2023-02-21T17:47:49.651Z,11.10
2023-02-21T17:50:17.806Z,11.10
2023-02-21T17:52:44.793Z,10.90
2023-02-21T17:55:25.498Z,10.90
2023-02-21T17:57:54.813Z,10.80
2023-02-21T18:00:27.399Z,10.70
2023-02-21T18:02:55.638Z,10.70
2023-02-21T18:05:24.953Z,10.60
2023-02-21T18:07:55.804Z,10.50
2023-02-21T18:10:24.176Z,10.60
2023-02-21T18:12:51.740Z,10.50
2023-02-21T18:15:21.998Z,10.20
2023-02-21T18:17:48.998Z,10.40
2023-02-21T18:20:16.645Z,10.40
2023-02-21T18:22:43.934Z,10.40
2023-02-21T18:25:11.217Z,10.20
2023-02-21T18:27:40.716Z,10.30
2023-02-21T18:30:08.074Z,10.20
2023-02-21T18:32:34.977Z,10.00
2023-02-21T18:35:01.701Z,9.80
2023-02-21T18:37:28.579Z,10.10
2023-02-21T18:42:23.987Z,9.80
2023-02-21T18:44:53.800Z,10.00
2023-02-21T19:09:38.001Z,9.50
2023-02-21T19:12:07.734Z,9.50
2023-02-21T19:14:38.010Z,9.20
2023-02-21T19:17:08.172Z,9.30
2023-02-21T19:19:36.406Z,9.20
2023-02-21T19:22:05.636Z,9.30
2023-02-21T19:24:36.320Z,9.20
2023-02-21T19:27:05.485Z,9.20
2023-02-21T19:29:32.263Z,9.10
2023-02-21T19:32:01.318Z,9.10
2023-02-21T19:34:28.149Z,9.00
2023-02-21T19:36:57.495Z,9.00
2023-02-21T19:39:26.568Z,9.00
2023-02-21T19:41:53.715Z,9.00
2023-02-21T19:44:22.966Z,8.90
2023-02-21T19:46:51.828Z,8.90
2023-02-21T19:49:18.796Z,8.80
2023-02-21T19:51:47.793Z,8.70
2023-02-21T19:54:18.994Z,8.60
2023-02-21T19:56:50.458Z,8.60
2023-02-21T19:59:18.768Z,8.60
2023-02-21T20:01:45.944Z,8.50
2023-02-21T20:04:17.577Z,8.50
2023-02-21T20:06:45.774Z,8.40
2023-02-21T20:09:14.896Z,8.30
2023-02-21T20:11:41.713Z,8.30
2023-02-21T20:14:11.882Z,8.20
2023-02-21T20:16:43.813Z,8.20
2023-02-21T20:19:12.215Z,8.20
2023-02-21T20:21:39.413Z,8.10
2023-02-21T20:24:10.868Z,8.10
2023-02-21T20:26:38.556Z,8.10
2023-02-21T20:29:05.728Z,8.10
2023-02-21T20:31:33.698Z,8.00
2023-02-21T20:34:03.469Z,7.90
2023-02-21T20:36:38.163Z,7.90
2023-02-21T20:39:28.327Z,7.90
2023-02-21T20:42:00.800Z,7.90
2023-02-21T20:44:34.039Z,7.80
2023-02-21T20:47:03.956Z,7.80
2023-02-21T20:49:32.002Z,7.80
2023-02-21T20:51:58.684Z,7.80
2023-02-21T20:54:25.571Z,7.70
2023-02-21T20:56:55.216Z,7.70
2023-02-21T20:59:26.852Z,7.60
2023-02-21T21:01:54.662Z,7.70
2023-02-21T21:04:30.631Z,7.50
2023-02-21T21:07:00.008Z,7.50
2023-02-21T21:09:34.065Z,7.50
2023-02-21T21:12:02.691Z,7.40
2023-02-21T21:14:38.158Z,7.40
2023-02-21T21:17:07.854Z,7.50
2023-02-21T21:19:34.893Z,7.40
2023-02-21T21:22:09.278Z,7.40
2023-02-21T21:24:37.007Z,7.30
2023-02-21T21:27:08.748Z,7.30
2023-02-21T21:29:43.022Z,7.40
2023-02-21T21:32:15.503Z,7.30
2023-02-21T21:34:48.142Z,7.30
2023-02-21T21:37:15.917Z,7.30
2023-02-21T21:39:54.348Z,7.30
2023-02-21T21:42:26.651Z,7.20
2023-02-21T21:44:59.179Z,7.10
2023-02-21T21:47:28.825Z,7.10
2023-02-21T21:49:59.442Z,7.00
2023-02-21T22:04:53.086Z,6.70
2023-02-21T22:07:20.575Z,6.90
2023-02-21T22:09:51.624Z,6.90
2023-02-21T22:12:18.879Z,6.70
2023-02-21T22:14:45.567Z,6.70
2023-02-21T22:17:12.367Z,6.60
2023-02-21T22:19:39.034Z,6.70
2023-02-21T22:22:08.077Z,6.70
2023-02-21T22:24:35.098Z,6.70
2023-02-21T22:27:02.442Z,6.70
2023-02-21T22:29:31.667Z,6.60
2023-02-21T22:32:01.042Z,6.60
2023-02-21T22:34:27.895Z,6.60
2023-02-21T22:36:57.313Z,6.50
2023-02-21T22:39:27.948Z,6.50
2023-02-21T22:41:54.799Z,6.50
2023-02-21T22:46:58.552Z,6.30
2023-02-21T22:49:26.883Z,6.40
2023-02-21T22:51:53.644Z,6.40
2023-02-21T22:54:25.132Z,6.30
2023-02-21T22:56:59.473Z,6.30
